Terminal Aerodrome Forecast
Issued by NWS

Home | Current Version | Previous Version | Text Only | Print | Product List | Glossary On
Versions: 1 2 3 4 5 6 7 8 9 10 11 12 13 14 15
000
FTUS45 KSLC 300220 AAB
TAFENV
TAF AMD
KENV 300220Z 3002/3024 13009KT P6SM VCSH FEW100 SCT130
      TEMPO 3002/3003 27015G25KT BKN100
     FM300300 34007KT P6SM SCT110 BKN150
     FM300900 VRB05KT P6SM FEW110 SCT150
     FM301600 13010KT P6SM SCT100 BKN150
      AMD LTD TO CLD VIS AND WIND=

USA.gov is the U.S. government's official web portal to all federal, state and local government web resources and services.